Terminal Aerodrome Forecast
Issued by NWS Mt. Holly, NJ

Home | Current Version | Previous Version | Text Only | Print | Product List | Glossary On
Versions: 1 2 3 4 5 6 7 8 9 10 11 12 13 14 15 16 17
000
FTUS41 KPHI 290520
TAFRDG
TAF
KRDG 290520Z 2906/3006 07011KT 6SM BR OVC010
      TEMPO 2907/2910 2SM -SHRA BR OVC008
     FM291000 05011G19KT 3SM BR OVC006
     FM291500 08012G22KT 6SM BR OVC010
     FM291900 06011G21KT P6SM -SHRA OVC020=

USA.gov is the U.S. government's official web portal to all federal, state and local government web resources and services.